EDT,Max TemperatureF,Mean TemperatureF,Min TemperatureF,Max Dew PointF,MeanDew PointF,Min DewpointF,Max Humidity, Mean Humidity, Min Humidity, Max Sea Level PressureIn, Mean Sea Level PressureIn, Min Sea Level PressureIn, Max VisibilityMiles, Mean VisibilityMiles, Min VisibilityMiles, Max Wind SpeedMPH, Mean Wind SpeedMPH, Max Gust SpeedMPH,PrecipitationIn, CloudCover, Events, WindDirDegrees
2013-3-1,45,40,35,32,28,25,86,64,47,29.76,29.67,29.59,10,10,10,14,8,23,0.00,6,,330
2013-3-2,39,34,30,29,25,22,93,69,49,29.76,29.73,29.69,10,8,2,12,9,18,0.00,8,Snow,321
2013-3-3,39,34,28,27,20,17,85,62,41,29.73,29.71,29.65,10,10,7,15,9,22,0.00,6,Snow,320
2013-3-4,41,34,27,19,18,15,66,53,41,29.88,29.78,29.74,10,10,10,20,11,32,0.00,2,,315
2013-3-5,46,38,30,33,24,19,79,57,39,30.02,29.98,29.90,10,10,10,14,9,22,0.00,2,,350
2013-3-6,42,38,33,36,31,30,92,77,65,29.99,29.89,29.83,10,9,2,31,15,44,0.03,7,Rain-Snow,54
2013-3-7,37,34,32,34,31,28,93,88,81,30.04,29.96,29.87,10,3,0,25,20,38,0.06,8,Fog-Rain-Snow,5
2013-3-8,41,36,30,34,30,24,100,88,51,30.14,30.01,29.97,10,3,0,17,13,26,0.05,8,Fog-Rain-Snow,348
2013-3-9,54,44,32,32,24,18,92,53,25,30.34,30.23,30.14,10,10,9,13,9,,0.00,0,,357
2013-3-10,43,36,30,35,31,27,92,80,67,30.40,30.36,30.32,10,10,7,9,4,,0.00,2,,133
2013-3-11,52,45,39,46,40,35,93,85,71,30.33,30.23,30.12,10,10,7,20,7,26,0.00,7,,163
2013-3-12,52,48,44,52,47,36,100,93,71,30.10,29.83,29.70,10,5,0,29,17,40,0.73,7,Fog-Rain,185
2013-3-13,51,42,35,36,29,20,92,59,32,29.88,29.84,29.78,10,10,10,17,7,24,0.00,3,,309
2013-3-14,39,34,28,26,11,2,60,39,23,29.95,29.89,29.84,10,10,10,23,12,32,0.00,4,,313
2013-3-15,46,37,28,28,17,6,55,43,33,29.97,29.86,29.73,10,10,10,20,12,26,0.00,4,,282
2013-3-16,39,36,32,30,27,19,93,77,47,29.91,29.82,29.78,10,6,0,9,5,,0.03,7,Snow,41
2013-3-17,37,34,30,29,19,11,86,58,34,30.31,30.10,29.92,10,10,10,13,7,18,0.00,1,,332
2013-3-18,36,30,26,32,23,10,96,72,43,30.42,30.22,30.04,10,6,0,20,10,29,0.29,5,Fog-Rain-Snow,82
2013-3-19,42,38,33,36,34,29,100,90,73,29.99,29.80,29.68,10,7,2,15,12,25,0.39,7,Rain-Thunderstorm,31
2013-3-20,45,38,30,23,18,14,59,44,29,29.89,29.84,29.79,10,10,10,21,10,33,0.00,3,,291
2013-3-21,37,34,28,27,24,15,93,74,48,29.84,29.70,29.64,10,6,0,16,7,21,0.05,7,Fog-Snow,354
2013-3-22,41,34,28,20,16,12,61,47,38,29.87,29.78,29.73,10,10,10,15,9,25,0.00,5,,301
2013-3-23,46,38,32,22,18,16,64,45,31,29.92,29.86,29.80,10,10,10,20,10,30,0.00,1,,301
2013-3-24,46,38,30,26,21,17,65,51,36,29.94,29.84,29.73,10,10,10,10,6,17,0.00,0,,284
2013-3-25,39,36,33,34,31,26,100,82,58,29.72,29.54,29.45,10,6,2,17,8,25,0.23,7,Rain-Snow,41
2013-3-26,52,44,36,30,27,23,76,57,35,29.86,29.73,29.58,10,10,10,15,6,18,0.00,6,Rain,322
2013-3-27,53,43,34,28,23,17,64,48,27,29.95,29.89,29.85,10,10,10,12,6,22,0.00,1,,313
2013-3-28,50,43,36,31,29,27,73,57,43,30.09,30.00,29.95,10,10,10,17,9,22,0.00,4,,331
2013-3-29,55,46,39,29,26,23,60,46,31,30.13,30.10,30.04,10,10,10,13,8,20,0.00,4,,318
2013-3-30,57,47,37,34,28,19,79,52,24,30.16,30.12,30.08,10,10,10,16,6,22,0.00,1,,302
2013-3-31,53,41,30,45,37,28,100,80,50,30.13,29.93,29.65,10,7,2,22,6,30,0.13,4,Rain,147